createdAt,value
2018-07-20T00:00:09.283Z,16.67
2018-07-20T00:02:37.926Z,17.40
2018-07-20T00:05:07.812Z,18.40
2018-07-20T00:07:36.847Z,19.00
2018-07-20T00:10:05.799Z,20.03
2018-07-20T00:12:35.619Z,19.00
2018-07-20T00:15:04.428Z,21.30
2018-07-20T00:17:33.108Z,21.00
2018-07-20T00:20:01.827Z,21.43
2018-07-20T00:22:30.511Z,20.33
2018-07-20T00:24:59.326Z,21.13
2018-07-20T00:27:28.056Z,22.87
2018-07-20T00:29:56.733Z,21.03
2018-07-20T00:32:25.563Z,28.07
2018-07-20T00:34:54.205Z,25.67
2018-07-20T00:37:22.842Z,27.30
2018-07-20T00:39:51.589Z,26.77
2018-07-20T00:42:20.240Z,23.73
2018-07-20T00:44:48.925Z,21.97
2018-07-20T00:47:17.819Z,22.67
2018-07-20T00:49:47.673Z,22.27
2018-07-20T00:52:16.335Z,22.07
2018-07-20T00:54:44.987Z,21.97
2018-07-20T00:57:13.662Z,21.90
2018-07-20T00:59:42.291Z,21.37
2018-07-20T01:02:11.378Z,21.17
2018-07-20T01:04:40.062Z,21.50
2018-07-20T01:07:08.854Z,21.13
2018-07-20T01:09:37.726Z,21.30
2018-07-20T01:12:06.755Z,19.87
2018-07-20T01:14:35.541Z,19.73
2018-07-20T01:17:04.210Z,19.80
2018-07-20T01:19:32.860Z,20.43
2018-07-20T01:22:01.519Z,19.67
2018-07-20T01:24:30.234Z,21.53
2018-07-20T01:26:59.300Z,20.53
2018-07-20T01:29:27.960Z,20.07
2018-07-20T01:31:56.578Z,19.27
2018-07-20T01:34:25.185Z,19.37
2018-07-20T01:36:53.904Z,19.53
2018-07-20T01:39:22.589Z,19.03
2018-07-20T01:41:51.338Z,19.27
2018-07-20T01:44:20.125Z,19.63
2018-07-20T01:46:48.800Z,18.93
2018-07-20T01:49:17.467Z,19.83
2018-07-20T01:51:46.130Z,19.93
2018-07-20T01:54:14.778Z,19.60
2018-07-20T01:56:43.414Z,19.40
2018-07-20T01:59:12.089Z,20.03
2018-07-20T02:01:40.752Z,19.17
2018-07-20T02:04:09.400Z,20.10
2018-07-20T02:06:38.075Z,19.97
2018-07-20T02:09:09.370Z,20.50
2018-07-20T02:11:38.020Z,19.47
2018-07-20T02:14:06.921Z,18.83
2018-07-20T02:16:35.582Z,19.27
2018-07-20T02:19:04.287Z,19.37
2018-07-20T02:21:32.983Z,19.03
2018-07-20T02:24:01.599Z,19.23
2018-07-20T02:26:30.282Z,18.90
2018-07-20T02:28:58.919Z,19.07
2018-07-20T02:31:27.608Z,19.13
2018-07-20T02:33:56.296Z,18.53
2018-07-20T02:36:24.943Z,19.47
2018-07-20T02:38:53.606Z,18.20
2018-07-20T02:41:22.278Z,18.40
2018-07-20T02:43:50.947Z,18.27
2018-07-20T02:46:19.595Z,18.70
2018-07-20T02:48:48.229Z,18.63
2018-07-20T02:51:16.878Z,19.07
2018-07-20T02:53:45.536Z,18.53
2018-07-20T02:56:14.260Z,18.83
2018-07-20T02:58:42.916Z,18.67
2018-07-20T03:01:11.564Z,18.67
2018-07-20T03:03:40.214Z,19.43
2018-07-20T03:06:08.943Z,19.63
2018-07-20T03:08:37.649Z,20.80
2018-07-20T03:11:06.379Z,20.63
2018-07-20T03:13:35.029Z,20.60
2018-07-20T03:16:03.865Z,21.00
2018-07-20T03:18:32.831Z,21.07
2018-07-20T03:21:01.537Z,22.00
2018-07-20T03:23:30.261Z,21.63
2018-07-20T03:25:58.891Z,22.60
2018-07-20T03:28:27.572Z,21.50
2018-07-20T03:30:56.295Z,21.73
2018-07-20T03:33:24.991Z,22.37
2018-07-20T03:35:53.656Z,21.77
2018-07-20T03:38:22.303Z,22.27
2018-07-20T03:40:50.966Z,22.30
2018-07-20T03:43:19.594Z,22.17
2018-07-20T03:45:48.265Z,22.43
2018-07-20T03:48:16.984Z,22.43
2018-07-20T03:50:45.615Z,22.03
2018-07-20T03:53:14.459Z,21.70
2018-07-20T03:55:43.076Z,21.70
2018-07-20T03:58:11.738Z,21.37
2018-07-20T04:00:40.367Z,21.20
2018-07-20T04:03:08.987Z,21.70
2018-07-20T04:05:38.661Z,22.33
2018-07-20T04:08:07.376Z,20.93
2018-07-20T04:10:36.030Z,21.27
2018-07-20T04:13:04.773Z,20.40
2018-07-20T04:15:33.463Z,20.77
2018-07-20T04:18:02.164Z,20.77
2018-07-20T04:20:30.830Z,20.57
2018-07-20T04:22:59.530Z,20.57
2018-07-20T04:25:28.170Z,21.27
2018-07-20T04:27:56.884Z,20.77
2018-07-20T04:30:25.576Z,20.93
2018-07-20T04:32:54.190Z,21.37
2018-07-20T04:35:22.974Z,21.67
2018-07-20T04:37:51.596Z,20.33
2018-07-20T04:40:20.254Z,20.70
2018-07-20T04:42:48.895Z,20.63
2018-07-20T04:45:17.543Z,20.57
2018-07-20T04:47:46.192Z,20.33
2018-07-20T04:50:14.805Z,20.43
2018-07-20T04:52:43.434Z,20.63
2018-07-20T04:55:12.055Z,19.93
2018-07-20T04:57:40.707Z,19.27
2018-07-20T05:00:09.502Z,19.90
2018-07-20T05:02:38.152Z,20.03
2018-07-20T05:05:06.875Z,19.73
2018-07-20T05:07:35.560Z,19.53
2018-07-20T05:10:04.498Z,18.70
2018-07-20T05:12:33.181Z,19.83
2018-07-20T05:15:01.932Z,19.27
2018-07-20T05:17:30.571Z,18.40
2018-07-20T05:19:59.272Z,20.17
2018-07-20T05:22:27.925Z,18.93
2018-07-20T05:24:56.578Z,19.40
2018-07-20T05:27:25.223Z,19.17
2018-07-20T05:29:53.863Z,20.00
2018-07-20T05:32:23.144Z,18.60
2018-07-20T05:34:51.797Z,20.00
2018-07-20T05:37:20.442Z,18.03
2018-07-20T05:39:49.066Z,18.33
2018-07-20T05:42:17.782Z,17.83
2018-07-20T05:44:46.412Z,16.90
2018-07-20T05:47:15.140Z,16.30
2018-07-20T05:49:43.840Z,17.37
2018-07-20T05:52:12.474Z,16.43
2018-07-20T05:54:41.242Z,17.50
2018-07-20T05:57:09.897Z,23.53
2018-07-20T05:59:38.552Z,16.90
2018-07-20T06:02:07.319Z,15.93
2018-07-20T06:04:36.059Z,17.23
2018-07-20T06:07:04.787Z,16.07
2018-07-20T06:09:33.418Z,15.73
2018-07-20T06:12:02.142Z,16.60
2018-07-20T06:14:30.926Z,16.60
2018-07-20T06:16:59.563Z,16.87
2018-07-20T06:19:28.214Z,16.07
2018-07-20T06:21:56.864Z,15.73
2018-07-20T06:24:25.624Z,16.13
2018-07-20T06:26:54.329Z,16.20
2018-07-20T06:29:22.954Z,16.27
2018-07-20T06:31:51.612Z,15.07
2018-07-20T06:34:20.238Z,16.30
2018-07-20T06:36:48.878Z,15.20
2018-07-20T06:39:17.561Z,15.73
2018-07-20T06:41:46.201Z,14.77
2018-07-20T06:44:14.832Z,15.73
2018-07-20T06:46:43.480Z,15.47
2018-07-20T06:49:12.124Z,14.40
2018-07-20T06:51:40.828Z,15.83
2018-07-20T06:54:09.515Z,15.87
2018-07-20T06:56:38.287Z,15.07
2018-07-20T06:59:06.963Z,15.87
2018-07-20T07:01:35.640Z,16.03
2018-07-20T07:04:04.315Z,15.43
2018-07-20T07:06:33.013Z,14.97
2018-07-20T07:09:01.780Z,15.80
2018-07-20T07:11:30.485Z,13.83
2018-07-20T07:13:59.154Z,14.90
2018-07-20T07:16:27.818Z,13.80
2018-07-20T07:18:56.547Z,13.87
2018-07-20T07:21:25.227Z,13.40
2018-07-20T07:23:53.835Z,14.03
2018-07-20T07:26:22.480Z,14.37
2018-07-20T07:28:51.260Z,12.37
2018-07-20T07:31:19.891Z,13.40
2018-07-20T07:33:48.552Z,14.50
2018-07-20T07:36:17.218Z,14.70
2018-07-20T07:38:45.984Z,13.37
2018-07-20T07:41:14.649Z,13.80
2018-07-20T07:43:43.373Z,13.70
2018-07-20T07:46:12.020Z,13.60
2018-07-20T07:48:40.695Z,13.00
2018-07-20T07:51:09.359Z,13.07
2018-07-20T07:53:38.059Z,12.87
2018-07-20T07:56:06.718Z,12.13
2018-07-20T07:58:35.358Z,12.73
2018-07-20T08:01:04.036Z,12.23
2018-07-20T08:03:32.781Z,12.43
2018-07-20T08:06:01.398Z,12.70
2018-07-20T08:08:30.059Z,12.13
2018-07-20T08:10:58.703Z,11.08
2018-07-20T08:13:27.363Z,11.88
2018-07-20T08:15:56.049Z,11.95
2018-07-20T08:18:24.729Z,11.85
2018-07-20T08:20:53.881Z,11.38
2018-07-20T08:23:22.561Z,12.15
2018-07-20T08:25:51.199Z,10.58
2018-07-20T08:28:19.902Z,10.40
2018-07-20T08:30:48.599Z,10.95
2018-07-20T08:33:17.249Z,11.40
2018-07-20T08:35:46.020Z,10.98
2018-07-20T08:38:14.749Z,10.70
2018-07-20T08:40:43.477Z,11.18
2018-07-20T08:43:12.113Z,10.82
2018-07-20T08:45:40.836Z,11.30
2018-07-20T08:48:09.551Z,10.38
2018-07-20T08:50:38.265Z,10.45
2018-07-20T08:53:06.894Z,10.93
2018-07-20T08:55:35.551Z,10.53
2018-07-20T08:58:04.227Z,10.85
2018-07-20T09:00:32.893Z,11.68
2018-07-20T09:03:01.879Z,10.63
2018-07-20T09:05:30.763Z,10.63
2018-07-20T09:07:59.455Z,12.03
2018-07-20T09:10:28.109Z,11.18
2018-07-20T09:12:56.903Z,10.75
2018-07-20T09:15:25.530Z,11.53
2018-07-20T09:17:54.294Z,10.82
2018-07-20T09:20:22.973Z,10.48
2018-07-20T09:22:51.628Z,9.48
2018-07-20T09:25:20.254Z,10.75
2018-07-20T09:27:48.865Z,10.35
2018-07-20T09:30:17.495Z,10.05
2018-07-20T09:32:46.147Z,10.28
2018-07-20T09:35:14.776Z,9.65
2018-07-20T09:37:43.465Z,10.30
2018-07-20T09:40:12.119Z,9.83
2018-07-20T09:42:40.788Z,9.93
2018-07-20T09:45:09.442Z,10.85
2018-07-20T09:47:38.061Z,9.15
2018-07-20T09:50:06.727Z,9.90
2018-07-20T09:52:35.391Z,9.25
2018-07-20T09:55:04.088Z,9.50
2018-07-20T09:57:32.742Z,9.73
2018-07-20T10:00:01.376Z,8.88
2018-07-20T10:02:30.103Z,9.03
2018-07-20T10:04:58.766Z,9.70
2018-07-20T10:07:27.490Z,9.40
2018-07-20T10:09:56.146Z,9.93
2018-07-20T10:12:24.778Z,9.43
2018-07-20T10:14:53.760Z,9.15
2018-07-20T10:17:22.431Z,8.85
2018-07-20T10:19:51.083Z,9.43
2018-07-20T10:22:19.824Z,8.38
2018-07-20T10:24:48.502Z,8.53
2018-07-20T10:27:17.186Z,8.98
2018-07-20T10:29:45.863Z,8.83
2018-07-20T10:32:14.517Z,8.53
2018-07-20T10:34:43.176Z,8.40
2018-07-20T10:37:11.843Z,8.53
2018-07-20T10:39:40.482Z,8.78
2018-07-20T10:42:09.148Z,7.72
2018-07-20T10:44:37.902Z,8.28
2018-07-20T10:47:06.610Z,8.55
2018-07-20T10:49:35.248Z,8.05
2018-07-20T10:52:03.993Z,8.63
2018-07-20T10:54:32.593Z,8.78
2018-07-20T10:57:01.245Z,9.00
2018-07-20T10:59:29.879Z,8.38
2018-07-20T11:01:58.614Z,8.30
2018-07-20T11:04:27.274Z,8.38
2018-07-20T11:06:55.906Z,8.55
2018-07-20T11:09:24.568Z,8.28
2018-07-20T11:11:53.642Z,8.78
2018-07-20T11:14:23.219Z,9.40
2018-07-20T11:16:51.935Z,9.05
2018-07-20T11:19:20.687Z,8.65
2018-07-20T11:21:49.429Z,9.55
2018-07-20T11:24:18.081Z,9.30
2018-07-20T11:26:46.798Z,8.35
2018-07-20T11:29:15.537Z,9.40
2018-07-20T11:31:44.187Z,8.65
2018-07-20T11:34:12.826Z,9.10
2018-07-20T11:36:41.460Z,8.78
2018-07-20T11:39:10.568Z,9.15
2018-07-20T11:41:39.900Z,8.75
2018-07-20T11:44:15.178Z,8.48
2018-07-20T11:46:43.955Z,8.15
2018-07-20T11:49:12.617Z,8.00
2018-07-20T11:51:41.255Z,8.53
2018-07-20T11:54:09.845Z,8.65
2018-07-20T11:56:38.474Z,8.00
2018-07-20T11:59:07.100Z,8.15
2018-07-20T12:01:35.758Z,8.30
2018-07-20T12:04:04.411Z,7.97
2018-07-20T12:06:33.176Z,8.20
2018-07-20T12:09:01.774Z,7.55
2018-07-20T12:11:30.415Z,7.58
2018-07-20T12:13:59.031Z,7.90
2018-07-20T12:16:28.081Z,7.60
2018-07-20T12:18:56.692Z,7.55
2018-07-20T12:21:25.355Z,7.80
2018-07-20T12:23:54.054Z,8.65
2018-07-20T12:26:22.927Z,8.23
2018-07-20T12:28:51.570Z,8.30
2018-07-20T12:31:20.198Z,8.58
2018-07-20T12:33:48.798Z,7.75
2018-07-20T12:36:17.456Z,7.50
2018-07-20T12:38:46.161Z,7.62
2018-07-20T12:41:14.904Z,7.75
2018-07-20T12:43:43.690Z,7.47
2018-07-20T12:46:12.383Z,7.45
2018-07-20T12:48:41.059Z,7.40
2018-07-20T12:51:09.702Z,7.25
2018-07-20T12:53:38.417Z,7.80
2018-07-20T12:56:07.077Z,7.80
2018-07-20T12:58:35.720Z,7.87
2018-07-20T13:01:04.425Z,7.17
2018-07-20T13:03:33.077Z,8.38
2018-07-20T13:06:01.724Z,8.35
2018-07-20T13:08:30.399Z,8.00
2018-07-20T13:10:59.095Z,7.95
2018-07-20T13:13:27.880Z,8.10
2018-07-20T13:15:56.536Z,8.88
2018-07-20T13:18:25.194Z,9.20
2018-07-20T13:20:53.920Z,8.28
2018-07-20T13:23:22.610Z,7.70
2018-07-20T13:25:51.239Z,8.03
2018-07-20T13:28:19.965Z,7.90
2018-07-20T13:30:48.623Z,8.35
2018-07-20T13:33:17.280Z,8.88
2018-07-20T13:35:45.948Z,8.53
2018-07-20T13:38:14.658Z,8.65
2018-07-20T13:40:43.331Z,9.55
2018-07-20T13:43:11.981Z,8.20
2018-07-20T13:45:40.689Z,8.78
2018-07-20T13:48:09.381Z,8.23
2018-07-20T13:50:38.059Z,8.53
2018-07-20T13:53:06.911Z,7.97
2018-07-20T13:55:35.644Z,8.00
2018-07-20T13:58:04.352Z,7.97
2018-07-20T14:00:33.031Z,9.95
2018-07-20T14:03:01.700Z,8.25
2018-07-20T14:05:30.389Z,8.08
2018-07-20T14:07:59.031Z,8.38
2018-07-20T14:10:27.790Z,8.25
2018-07-20T14:12:56.420Z,7.47
2018-07-20T14:15:25.130Z,8.43
2018-07-20T14:17:53.900Z,8.13
2018-07-20T14:20:22.620Z,8.00
2018-07-20T14:22:51.588Z,7.83
2018-07-20T14:25:20.321Z,8.67
2018-07-20T14:27:48.944Z,8.50
2018-07-20T14:30:17.638Z,8.67
2018-07-20T14:32:46.315Z,8.90
2018-07-20T14:35:15.025Z,9.63
2018-07-20T14:37:43.658Z,10.37
2018-07-20T14:40:12.297Z,10.57
2018-07-20T14:42:41.194Z,10.70
2018-07-20T14:45:10.151Z,10.50
2018-07-20T14:47:38.850Z,10.10
2018-07-20T14:50:07.980Z,10.10
2018-07-20T14:52:36.662Z,9.67
2018-07-20T14:55:05.359Z,10.10
2018-07-20T14:57:34.007Z,10.03
2018-07-20T15:00:02.716Z,9.80
2018-07-20T15:02:31.405Z,8.77
2018-07-20T15:05:00.079Z,8.43
2018-07-20T15:07:28.804Z,9.33
2018-07-20T15:09:57.491Z,8.80
2018-07-20T15:12:26.187Z,8.93
2018-07-20T15:14:54.935Z,9.10
2018-07-20T15:17:23.621Z,9.20
2018-07-20T15:19:52.259Z,9.07
2018-07-20T15:22:21.018Z,9.00
2018-07-20T15:24:49.713Z,9.30
2018-07-20T15:27:18.415Z,9.90
2018-07-20T15:29:47.048Z,9.50
2018-07-20T15:32:15.707Z,10.00
2018-07-20T15:34:44.385Z,9.47
2018-07-20T15:37:13.154Z,9.27
2018-07-20T15:39:41.783Z,9.23
2018-07-20T15:42:10.496Z,9.53
2018-07-20T15:44:39.138Z,8.73
2018-07-20T15:47:07.827Z,8.27
2018-07-20T15:49:36.547Z,8.10
2018-07-20T15:54:34.015Z,7.77
2018-07-20T15:57:02.715Z,6.90
2018-07-20T15:59:31.440Z,7.60
2018-07-20T16:02:00.072Z,7.30
2018-07-20T16:04:28.780Z,7.60
2018-07-20T16:06:57.433Z,8.07
2018-07-20T16:09:26.235Z,8.30
2018-07-20T16:11:54.946Z,7.33
2018-07-20T16:14:23.732Z,7.70
2018-07-20T16:16:52.400Z,7.63
2018-07-20T16:19:21.034Z,7.17
2018-07-20T16:21:49.698Z,6.97
2018-07-20T16:24:18.555Z,6.40
2018-07-20T16:26:47.302Z,8.77
2018-07-20T16:29:15.970Z,7.30
2018-07-20T16:31:44.716Z,6.60
2018-07-20T16:34:13.401Z,6.90
2018-07-20T16:36:42.114Z,6.80
2018-07-20T16:39:11.377Z,6.73
2018-07-20T16:41:40.038Z,6.40
2018-07-20T16:44:08.734Z,7.70
2018-07-20T16:46:38.285Z,7.07
2018-07-20T16:49:07.086Z,7.60
2018-07-20T16:51:35.739Z,7.00
2018-07-20T16:54:04.446Z,7.20
2018-07-20T16:56:33.146Z,8.13
2018-07-20T16:59:01.860Z,7.20
2018-07-20T17:01:30.549Z,7.33
2018-07-20T17:03:59.214Z,7.17
2018-07-20T17:06:27.886Z,7.30
2018-07-20T17:08:56.611Z,7.50
2018-07-20T17:11:25.265Z,6.57
2018-07-20T17:13:54.010Z,6.70
2018-07-20T17:16:22.785Z,6.67
2018-07-20T17:18:51.449Z,7.20
2018-07-20T17:21:20.143Z,7.00
2018-07-20T17:23:48.818Z,6.67
2018-07-20T17:26:17.500Z,7.60
2018-07-20T17:28:46.191Z,7.33
2018-07-20T17:31:14.862Z,6.60
2018-07-20T17:33:43.487Z,6.80
2018-07-20T17:36:12.149Z,7.30
2018-07-20T17:38:40.869Z,7.13
2018-07-20T17:41:09.552Z,7.07
2018-07-20T17:43:38.255Z,6.90
2018-07-20T17:46:07.222Z,7.03
2018-07-20T17:48:35.873Z,7.10
2018-07-20T17:51:04.552Z,7.03
2018-07-20T17:53:33.211Z,7.27
2018-07-20T17:56:01.972Z,6.67
2018-07-20T17:58:30.632Z,7.03
2018-07-20T18:00:59.293Z,7.17
2018-07-20T18:03:27.951Z,7.20
2018-07-20T18:05:56.625Z,7.80
2018-07-20T18:08:25.250Z,7.20
2018-07-20T18:10:53.941Z,9.20
2018-07-20T18:13:22.795Z,12.77
2018-07-20T18:15:51.499Z,10.80
2018-07-20T18:18:20.441Z,8.90
2018-07-20T18:20:49.148Z,8.83
2018-07-20T18:23:18.669Z,7.83
2018-07-20T18:25:47.353Z,7.10
2018-07-20T18:28:16.961Z,7.73
2018-07-20T18:30:45.687Z,8.50
2018-07-20T18:33:14.382Z,14.27
2018-07-20T18:35:43.072Z,7.77
2018-07-20T18:38:11.746Z,7.77
2018-07-20T18:40:40.450Z,9.23
2018-07-20T18:43:09.169Z,9.03
2018-07-20T18:45:37.831Z,9.93
2018-07-20T18:48:06.631Z,9.50
2018-07-20T18:50:35.312Z,8.67
2018-07-20T18:53:04.049Z,8.90
2018-07-20T18:55:32.712Z,9.33
2018-07-20T18:58:01.465Z,9.30
2018-07-20T19:00:30.170Z,9.70
2018-07-20T19:02:58.859Z,10.17
2018-07-20T19:05:27.979Z,10.60
2018-07-20T19:07:56.778Z,12.27
2018-07-20T19:10:25.528Z,10.70
2018-07-20T19:12:54.220Z,13.80
2018-07-20T19:15:22.939Z,13.00
2018-07-20T19:17:51.859Z,13.00
2018-07-20T19:20:20.598Z,10.63
2018-07-20T19:22:49.238Z,10.10
2018-07-20T19:25:17.886Z,10.40
2018-07-20T19:27:46.567Z,11.50
2018-07-20T19:30:15.254Z,12.37
2018-07-20T19:32:43.951Z,11.40
2018-07-20T19:35:12.670Z,9.80
2018-07-20T19:37:41.365Z,12.33
2018-07-20T19:40:10.238Z,13.27
2018-07-20T19:42:39.538Z,13.43
2018-07-20T19:45:08.278Z,13.10
2018-07-20T19:47:36.986Z,10.87
2018-07-20T19:50:05.807Z,11.00
2018-07-20T19:52:34.480Z,11.33
2018-07-20T19:55:03.230Z,9.50
2018-07-20T19:57:32.250Z,11.17
2018-07-20T20:00:01.012Z,10.17
2018-07-20T20:02:29.752Z,10.10
2018-07-20T20:04:58.409Z,12.53
2018-07-20T20:07:27.112Z,11.97
2018-07-20T20:09:55.768Z,17.23
2018-07-20T20:12:24.414Z,16.23
2018-07-20T20:14:53.132Z,14.73
2018-07-20T20:17:21.802Z,15.03
2018-07-20T20:19:50.999Z,11.53
2018-07-20T20:22:19.696Z,12.47
2018-07-20T20:24:48.373Z,12.60
2018-07-20T20:27:17.818Z,12.77
2018-07-20T20:29:46.796Z,12.97
2018-07-20T20:32:15.455Z,12.60
2018-07-20T20:34:44.643Z,12.00
2018-07-20T20:37:13.456Z,9.70
2018-07-20T20:39:42.206Z,10.10
2018-07-20T20:42:11.130Z,11.13
2018-07-20T20:44:39.779Z,11.33
2018-07-20T20:47:09.091Z,10.70
2018-07-20T20:49:37.815Z,11.20
2018-07-20T20:52:06.488Z,9.67
2018-07-20T20:54:35.115Z,10.77
2018-07-20T20:57:03.862Z,12.17
2018-07-20T20:59:32.547Z,11.63
2018-07-20T21:02:01.238Z,10.47
2018-07-20T21:04:29.892Z,15.27
2018-07-20T21:06:58.559Z,10.70
2018-07-20T21:09:27.254Z,11.73
2018-07-20T21:11:56.076Z,12.43
2018-07-20T21:14:24.693Z,11.97
2018-07-20T21:16:53.355Z,9.37
2018-07-20T21:19:22.055Z,10.03
2018-07-20T21:21:50.731Z,11.23
2018-07-20T21:24:19.384Z,10.13
2018-07-20T21:26:48.043Z,11.83
2018-07-20T21:29:16.825Z,9.60
2018-07-20T21:31:45.575Z,9.90
2018-07-20T21:34:14.229Z,11.60
2018-07-20T21:36:42.875Z,11.47
2018-07-20T21:39:13.100Z,11.77
2018-07-20T21:41:42.690Z,15.77
2018-07-20T21:44:11.501Z,12.97
2018-07-20T21:46:40.463Z,12.60
2018-07-20T21:49:09.122Z,12.23
2018-07-20T21:51:37.864Z,11.50
2018-07-20T21:54:06.617Z,12.47
2018-07-20T21:56:35.304Z,15.33
2018-07-20T21:59:04.037Z,21.90
2018-07-20T22:01:32.691Z,23.87
2018-07-20T22:04:01.351Z,24.13
2018-07-20T22:06:29.968Z,20.07
2018-07-20T22:08:58.620Z,19.67
2018-07-20T22:11:27.319Z,17.30
2018-07-20T22:13:56.012Z,16.10
2018-07-20T22:16:24.659Z,13.73
2018-07-20T22:18:53.372Z,11.90
2018-07-20T22:21:22.011Z,9.67
2018-07-20T22:23:50.944Z,10.80
2018-07-20T22:26:19.586Z,8.20
2018-07-20T22:28:48.239Z,9.90
2018-07-20T22:31:16.887Z,9.00
2018-07-20T22:33:45.545Z,7.63
2018-07-20T22:36:14.178Z,7.47
2018-07-20T22:38:42.862Z,8.17
2018-07-20T22:41:11.624Z,6.90
2018-07-20T22:43:40.249Z,7.40
2018-07-20T22:46:09.074Z,7.03
2018-07-20T22:48:37.758Z,6.80
2018-07-20T22:51:06.498Z,6.90
2018-07-20T22:53:35.151Z,7.50
2018-07-20T22:56:03.903Z,6.60
2018-07-20T22:58:32.544Z,6.63
2018-07-20T23:01:01.196Z,6.40
2018-07-20T23:03:29.880Z,6.17
2018-07-20T23:05:58.484Z,6.37
2018-07-20T23:08:27.139Z,6.53
2018-07-20T23:10:55.762Z,6.80
2018-07-20T23:13:24.429Z,6.40
2018-07-20T23:15:53.073Z,6.00
2018-07-20T23:18:21.687Z,5.83
2018-07-20T23:20:50.330Z,6.30
2018-07-20T23:23:18.975Z,5.80
2018-07-20T23:25:47.612Z,6.37
2018-07-20T23:28:16.236Z,6.00
2018-07-20T23:30:44.898Z,6.30
2018-07-20T23:33:13.536Z,5.80
2018-07-20T23:35:45.308Z,6.10
2018-07-20T23:38:13.909Z,6.37
2018-07-20T23:40:42.687Z,5.83
2018-07-20T23:43:15.760Z,5.63
2018-07-20T23:45:51.129Z,5.90
2018-07-20T23:48:28.213Z,5.97
2018-07-20T23:50:57.256Z,6.40
2018-07-20T23:53:25.895Z,5.57
2018-07-20T23:55:54.550Z,5.53
2018-07-20T23:58:23.259Z,6.30
